createdAt,value
2018-06-24T00:01:04.972Z,54.38
2018-06-24T00:03:35.275Z,53.70
2018-06-24T00:06:05.218Z,54.22
2018-06-24T00:08:33.719Z,54.76
2018-06-24T00:11:02.567Z,54.82
2018-06-24T00:13:31.406Z,55.04
2018-06-24T00:16:04.811Z,54.60
2018-06-24T00:18:34.322Z,54.44
2018-06-24T00:21:03.774Z,55.04
2018-06-24T00:23:32.333Z,55.36
2018-06-24T00:26:00.809Z,54.62
2018-06-24T00:28:29.294Z,55.38
2018-06-24T00:31:04.302Z,54.86
2018-06-24T00:33:32.865Z,55.04
2018-06-24T00:36:12.245Z,55.45
2018-06-24T00:38:41.106Z,54.70
2018-06-24T00:41:09.589Z,55.41
2018-06-24T00:43:38.477Z,55.43
2018-06-24T00:46:13.439Z,55.31
2018-06-24T00:48:43.225Z,56.08
2018-06-24T00:51:11.727Z,56.20
2018-06-24T00:53:40.546Z,56.08
2018-06-24T00:56:10.533Z,56.51
2018-06-24T00:58:39.014Z,56.64
2018-06-24T01:01:07.876Z,56.75
2018-06-24T01:03:40.170Z,56.26
2018-06-24T01:06:08.735Z,56.55
2018-06-24T01:08:37.570Z,57.23
2018-06-24T01:11:06.450Z,56.66
2018-06-24T01:13:34.932Z,56.72
2018-06-24T01:16:05.934Z,56.94
2018-06-24T01:18:34.439Z,57.04
2018-06-24T01:21:07.886Z,57.36
2018-06-24T01:23:41.604Z,57.43
2018-06-24T01:26:10.086Z,57.19
2018-06-24T01:28:38.873Z,57.05
2018-06-24T01:31:11.499Z,57.25
2018-06-24T01:33:39.981Z,57.61
2018-06-24T01:36:09.085Z,58.03
2018-06-24T01:38:37.566Z,57.77
2018-06-24T01:41:15.982Z,58.06
2018-06-24T01:43:44.873Z,58.41
2018-06-24T01:46:13.354Z,58.51
2018-06-24T01:51:21.666Z,58.30
2018-06-24T01:53:50.190Z,59.19
2018-06-24T01:56:20.313Z,59.22
2018-06-24T01:58:49.295Z,58.51
2018-06-24T02:01:17.842Z,58.95
2018-06-24T02:03:46.347Z,59.28
2018-06-24T02:06:15.129Z,59.49
2018-06-24T02:08:44.283Z,59.29
2018-06-24T02:11:12.762Z,59.86
2018-06-24T02:13:43.392Z,59.62
2018-06-24T02:16:11.937Z,60.08
2018-06-24T02:18:40.415Z,59.84
2018-06-24T02:21:08.894Z,60.35
2018-06-24T02:23:37.454Z,59.77
2018-06-24T02:26:06.311Z,60.43
2018-06-24T02:28:34.978Z,60.21
2018-06-24T02:31:05.052Z,60.26
2018-06-24T02:33:34.952Z,59.73
2018-06-24T02:36:04.351Z,59.77
2018-06-24T02:38:32.947Z,60.49
2018-06-24T02:41:01.645Z,60.22
2018-06-24T02:43:30.644Z,60.07
2018-06-24T02:45:59.270Z,60.60
2018-06-24T02:48:27.783Z,60.21
2018-06-24T02:50:56.269Z,60.67
2018-06-24T02:53:27.621Z,60.82
2018-06-24T02:55:56.410Z,60.61
2018-06-24T02:58:24.936Z,61.02
2018-06-24T03:00:59.847Z,61.37
2018-06-24T03:03:28.607Z,61.10
2018-06-24T03:05:57.554Z,61.41
2018-06-24T03:08:26.494Z,61.30
2018-06-24T03:11:05.996Z,61.45
2018-06-24T03:16:14.419Z,61.88
2018-06-24T03:18:47.818Z,62.04
2018-06-24T03:21:16.358Z,62.22
2018-06-24T03:23:44.815Z,62.34
2018-06-24T03:26:13.319Z,62.18
2018-06-24T03:28:42.295Z,62.84
2018-06-24T03:31:10.834Z,62.91
2018-06-24T03:33:39.385Z,62.41
2018-06-24T03:36:08.199Z,62.83
2018-06-24T03:38:36.760Z,63.09
2018-06-24T03:41:05.722Z,63.01
2018-06-24T03:43:34.665Z,62.47
2018-06-24T03:46:04.558Z,62.29
2018-06-24T03:48:33.218Z,62.45
2018-06-24T03:51:01.908Z,62.08
2018-06-24T03:53:33.760Z,62.02
2018-06-24T03:56:03.296Z,61.85
2018-06-24T03:58:33.519Z,61.44
2018-06-24T04:01:02.045Z,61.10
2018-06-24T04:03:30.663Z,61.47
2018-06-24T04:05:59.143Z,60.67
2018-06-24T04:08:28.062Z,60.19
2018-06-24T04:10:56.552Z,60.63
2018-06-24T04:13:30.699Z,59.75
2018-06-24T04:16:03.911Z,60.16
2018-06-24T04:18:40.078Z,59.60
2018-06-24T04:21:10.667Z,59.57
2018-06-24T04:23:39.341Z,59.57
2018-06-24T04:26:08.855Z,59.98
2018-06-24T04:28:37.730Z,59.90
2018-06-24T04:31:06.310Z,59.68
2018-06-24T04:33:35.502Z,59.03
2018-06-24T04:36:05.768Z,59.42
2018-06-24T04:38:34.394Z,58.57
2018-06-24T04:41:03.145Z,58.85
2018-06-24T04:43:32.855Z,58.95
2018-06-24T04:46:03.224Z,58.85
2018-06-24T04:48:32.007Z,58.49
2018-06-24T04:51:01.601Z,59.23
2018-06-24T04:53:30.093Z,59.49
2018-06-24T04:55:58.993Z,59.16
2018-06-24T04:58:27.491Z,58.83
2018-06-24T05:00:55.986Z,59.16
2018-06-24T05:03:24.503Z,59.29
2018-06-24T05:05:53.023Z,59.78
2018-06-24T05:08:22.882Z,59.50
2018-06-24T05:10:51.398Z,60.05
2018-06-24T05:13:19.914Z,60.46
2018-06-24T05:15:48.400Z,59.71
2018-06-24T05:18:16.875Z,60.12
2018-06-24T05:20:45.729Z,58.83
2018-06-24T05:23:14.244Z,58.67
2018-06-24T05:25:42.761Z,58.25
2018-06-24T05:28:12.052Z,58.30
2018-06-24T05:30:40.586Z,56.94
2018-06-24T05:33:09.087Z,57.07
2018-06-24T05:35:43.712Z,56.24
2018-06-24T05:38:12.389Z,56.78
2018-06-24T05:40:40.922Z,56.45
2018-06-24T05:43:12.839Z,55.14
2018-06-24T05:45:41.372Z,55.54
2018-06-24T05:48:09.918Z,54.57
2018-06-24T05:50:38.806Z,54.28
2018-06-24T05:53:07.656Z,53.35
2018-06-24T05:55:36.218Z,52.72
2018-06-24T05:58:06.313Z,52.49
2018-06-24T06:00:34.903Z,52.94
2018-06-24T06:03:03.495Z,53.08
2018-06-24T06:05:32.634Z,52.69
2018-06-24T06:08:02.987Z,53.23
2018-06-24T06:10:31.598Z,53.04
2018-06-24T06:13:00.377Z,53.13
2018-06-24T06:15:28.874Z,53.16
2018-06-24T06:17:57.418Z,53.71
2018-06-24T06:20:26.202Z,53.43
2018-06-24T06:22:54.724Z,53.79
2018-06-24T06:25:23.575Z,53.01
2018-06-24T06:27:52.067Z,53.30
2018-06-24T06:30:20.567Z,52.97
2018-06-24T06:32:49.511Z,52.62
2018-06-24T06:35:18.075Z,52.85
2018-06-24T06:37:46.615Z,52.50
2018-06-24T06:40:15.470Z,52.62
2018-06-24T06:42:44.186Z,52.44
2018-06-24T06:45:21.671Z,52.60
2018-06-24T06:47:55.509Z,52.93
2018-06-24T06:50:25.653Z,52.30
2018-06-24T06:52:54.381Z,52.03
2018-06-24T06:55:22.923Z,53.08
2018-06-24T06:57:54.019Z,52.90
2018-06-24T07:00:22.510Z,52.58
2018-06-24T07:02:51.014Z,51.49
2018-06-24T07:05:20.005Z,52.84
2018-06-24T07:07:48.532Z,51.72
2018-06-24T07:10:17.078Z,51.84
2018-06-24T07:12:46.108Z,52.39
2018-06-24T07:15:16.271Z,52.21
2018-06-24T07:17:44.840Z,51.29
2018-06-24T07:20:18.926Z,51.81
2018-06-24T07:22:47.699Z,51.91
2018-06-24T07:25:17.591Z,51.25
2018-06-24T07:27:46.218Z,50.51
2018-06-24T07:30:14.716Z,50.14
2018-06-24T07:32:44.794Z,49.83
2018-06-24T07:35:13.327Z,50.08
2018-06-24T07:37:41.908Z,49.28
2018-06-24T07:40:10.576Z,48.96
2018-06-24T07:42:39.071Z,49.37
2018-06-24T07:45:09.342Z,50.00
2018-06-24T07:47:37.871Z,49.42
2018-06-24T07:50:06.400Z,49.48
2018-06-24T07:52:34.999Z,49.39
2018-06-24T07:55:07.186Z,48.86
2018-06-24T07:57:36.103Z,49.35
2018-06-24T08:00:06.407Z,48.96
2018-06-24T08:02:36.766Z,48.43
2018-06-24T08:05:05.756Z,48.34
2018-06-24T08:07:39.059Z,47.87
2018-06-24T08:10:07.666Z,49.45
2018-06-24T08:12:39.582Z,49.53
2018-06-24T08:15:08.417Z,49.59
2018-06-24T08:17:36.925Z,49.63
2018-06-24T08:20:06.508Z,50.64
2018-06-24T08:22:34.981Z,50.77
2018-06-24T08:25:04.115Z,50.26
2018-06-24T08:27:34.077Z,50.01
2018-06-24T08:30:03.336Z,50.82
2018-06-24T08:32:31.973Z,50.87
2018-06-24T08:35:04.462Z,51.04
2018-06-24T08:37:33.070Z,51.36
2018-06-24T08:40:03.342Z,51.48
2018-06-24T08:42:32.458Z,51.44
2018-06-24T08:45:07.804Z,51.72
2018-06-24T08:47:36.412Z,51.30
2018-06-24T08:50:11.557Z,50.43
2018-06-24T08:52:42.181Z,50.51
2018-06-24T08:55:11.191Z,50.17
2018-06-24T08:57:44.905Z,49.98
2018-06-24T09:00:13.431Z,48.97
2018-06-24T09:02:43.562Z,49.26
2018-06-24T09:05:12.103Z,50.05
2018-06-24T09:07:40.926Z,49.52
2018-06-24T09:10:10.830Z,49.05
2018-06-24T09:12:39.355Z,49.55
2018-06-24T09:15:08.480Z,48.86
2018-06-24T09:17:37.011Z,48.59
2018-06-24T09:20:11.330Z,48.51
2018-06-24T09:22:41.265Z,48.72
2018-06-24T09:25:14.835Z,48.05
2018-06-24T09:27:43.524Z,48.05
2018-06-24T09:30:13.818Z,48.27
2018-06-24T09:32:42.430Z,47.91
2018-06-24T09:35:11.328Z,48.62
2018-06-24T09:37:42.116Z,47.76
2018-06-24T09:40:10.624Z,47.43
2018-06-24T09:42:40.341Z,46.82
2018-06-24T09:45:08.954Z,45.94
2018-06-24T09:47:37.542Z,45.68
2018-06-24T09:50:06.829Z,45.72
2018-06-24T09:52:35.446Z,46.04
2018-06-24T09:57:38.432Z,45.18
2018-06-24T10:00:11.967Z,42.34
2018-06-24T10:02:41.489Z,41.33
2018-06-24T10:05:09.969Z,42.12
2018-06-24T10:07:38.467Z,40.93
2018-06-24T10:10:07.569Z,40.20
2018-06-24T10:12:38.060Z,40.24
2018-06-24T10:15:12.110Z,40.06
2018-06-24T10:17:47.545Z,39.76
2018-06-24T10:20:16.351Z,41.00
2018-06-24T10:22:44.821Z,40.99
2018-06-24T10:25:14.670Z,40.93
2018-06-24T10:27:43.212Z,40.11
2018-06-24T10:30:11.715Z,39.73
2018-06-24T10:32:40.619Z,39.49
2018-06-24T10:35:09.202Z,38.45
2018-06-24T10:37:37.739Z,38.42
2018-06-24T10:40:07.648Z,39.01
2018-06-24T10:42:40.604Z,38.37
2018-06-24T10:45:09.565Z,38.66
2018-06-24T10:47:38.018Z,37.55
2018-06-24T10:50:06.658Z,37.82
2018-06-24T10:52:35.945Z,37.25
2018-06-24T10:55:04.997Z,38.49
2018-06-24T10:57:33.535Z,38.00
2018-06-24T11:02:38.348Z,35.67
2018-06-24T11:05:06.890Z,34.37
2018-06-24T11:07:37.356Z,34.22
2018-06-24T11:10:06.378Z,34.68
2018-06-24T11:12:34.936Z,35.75
2018-06-24T11:15:04.029Z,36.04
2018-06-24T11:17:33.165Z,35.56
2018-06-24T11:20:03.346Z,35.25
2018-06-24T11:22:32.201Z,35.89
2018-06-24T11:25:00.815Z,35.49
2018-06-24T11:27:29.402Z,34.77
2018-06-24T11:29:58.380Z,34.01
2018-06-24T11:32:26.927Z,34.75
2018-06-24T11:34:55.702Z,34.31
2018-06-24T11:37:28.740Z,33.97
2018-06-24T11:39:57.412Z,34.27
2018-06-24T11:42:30.875Z,33.47
2018-06-24T11:44:59.829Z,32.79
2018-06-24T11:47:28.477Z,32.76
2018-06-24T11:49:57.059Z,32.13
2018-06-24T11:52:25.998Z,30.84
2018-06-24T11:54:54.518Z,31.05
2018-06-24T11:57:23.050Z,31.19
2018-06-24T11:59:57.634Z,32.82
2018-06-24T12:02:26.356Z,33.28
2018-06-24T12:04:54.895Z,33.78
2018-06-24T12:07:25.032Z,32.27
2018-06-24T12:09:53.697Z,31.68
2018-06-24T12:12:22.127Z,31.69
2018-06-24T12:14:50.870Z,31.80
2018-06-24T12:17:19.411Z,31.64
2018-06-24T12:19:47.940Z,30.97
2018-06-24T12:22:19.413Z,31.41
2018-06-24T12:24:48.038Z,31.38
2018-06-24T12:27:16.526Z,31.40
2018-06-24T12:29:45.367Z,31.59
2018-06-24T12:32:13.869Z,32.33
2018-06-24T12:34:43.051Z,32.96
2018-06-24T12:37:11.835Z,33.54
2018-06-24T12:39:40.292Z,33.13
2018-06-24T12:42:08.852Z,32.78
2018-06-24T12:44:37.714Z,32.16
2018-06-24T12:47:06.304Z,33.18
2018-06-24T12:49:34.843Z,32.57
2018-06-24T12:52:07.869Z,34.30
2018-06-24T12:54:36.391Z,34.17
2018-06-24T12:57:05.991Z,34.74
2018-06-24T12:59:35.187Z,33.54
2018-06-24T13:02:05.384Z,32.66
2018-06-24T13:04:33.922Z,32.46
2018-06-24T13:07:09.130Z,31.82
2018-06-24T13:09:37.700Z,32.81
2018-06-24T13:12:06.748Z,31.54
2018-06-24T13:14:36.303Z,31.52
2018-06-24T13:17:06.911Z,31.03
2018-06-24T13:19:35.470Z,29.65
2018-06-24T13:22:06.154Z,29.63
2018-06-24T13:24:34.680Z,29.32
2018-06-24T13:27:03.292Z,29.93
2018-06-24T13:29:32.302Z,28.83
2018-06-24T13:32:00.957Z,29.88
2018-06-24T13:34:29.501Z,30.17
2018-06-24T13:36:58.414Z,30.33
2018-06-24T13:39:26.996Z,30.36
2018-06-24T13:41:55.472Z,30.97
2018-06-24T13:44:24.872Z,31.42
2018-06-24T13:46:55.647Z,32.05
2018-06-24T13:49:24.182Z,30.81
2018-06-24T13:51:53.728Z,31.48
2018-06-24T13:54:22.422Z,32.19
2018-06-24T13:56:50.967Z,32.42
2018-06-24T13:59:19.765Z,33.00
2018-06-24T14:01:48.636Z,32.22
2018-06-24T14:04:17.229Z,31.91
2018-06-24T14:06:45.692Z,32.94
2018-06-24T14:09:15.238Z,32.00
2018-06-24T14:11:44.231Z,31.74
2018-06-24T14:14:12.861Z,31.35
2018-06-24T14:16:46.393Z,29.90
2018-06-24T14:19:15.686Z,29.82
2018-06-24T14:21:44.456Z,31.62
2018-06-24T14:24:13.020Z,32.51
2018-06-24T14:26:42.740Z,31.79
2018-06-24T14:29:11.322Z,32.53
2018-06-24T14:31:46.297Z,33.59
2018-06-24T14:34:19.511Z,34.31
2018-06-24T14:36:48.102Z,35.13
2018-06-24T14:39:16.643Z,34.75
2018-06-24T14:41:47.616Z,33.84
2018-06-24T14:44:16.212Z,32.38
2018-06-24T14:46:44.732Z,31.69
2018-06-24T14:49:18.441Z,32.11
2018-06-24T14:51:47.019Z,32.03
2018-06-24T14:54:15.822Z,32.45
2018-06-24T14:56:44.408Z,32.62
2018-06-24T14:59:19.444Z,32.17
2018-06-24T15:01:48.538Z,32.85
2018-06-24T15:04:17.082Z,32.49
2018-06-24T15:06:45.678Z,32.76
2018-06-24T15:09:14.550Z,32.20
2018-06-24T15:11:43.102Z,33.11
2018-06-24T15:14:17.943Z,31.91
2018-06-24T15:16:46.429Z,32.41
2018-06-24T15:19:14.893Z,32.69
2018-06-24T15:21:46.087Z,32.60
2018-06-24T15:24:14.722Z,33.79
2018-06-24T15:26:43.362Z,32.87
2018-06-24T15:29:18.155Z,32.86
2018-06-24T15:31:46.670Z,33.95
2018-06-24T15:34:15.174Z,33.21
2018-06-24T15:36:44.168Z,33.80
2018-06-24T15:39:13.643Z,33.95
2018-06-24T15:41:42.915Z,34.20
2018-06-24T15:44:11.729Z,33.88
2018-06-24T15:46:40.205Z,34.37
2018-06-24T15:49:09.047Z,34.83
2018-06-24T15:51:40.758Z,34.98
2018-06-24T15:54:09.242Z,35.82
2018-06-24T15:56:38.852Z,35.23
2018-06-24T15:59:07.939Z,35.87
2018-06-24T16:01:38.422Z,35.40
2018-06-24T16:04:06.993Z,36.86
2018-06-24T16:06:37.036Z,37.98
2018-06-24T16:09:10.009Z,37.93
2018-06-24T16:11:39.466Z,39.08
2018-06-24T16:14:08.100Z,37.41
2018-06-24T16:16:38.013Z,38.67
2018-06-24T16:19:07.371Z,38.18
2018-06-24T16:24:16.657Z,38.68
2018-06-24T16:26:45.143Z,36.35
2018-06-24T16:29:13.648Z,36.24
2018-06-24T16:31:42.762Z,37.10
2018-06-24T16:34:11.737Z,35.89
2018-06-24T16:36:40.247Z,37.28
2018-06-24T16:39:10.449Z,38.26
2018-06-24T16:41:40.094Z,34.85
2018-06-24T16:44:08.771Z,34.96
2018-06-24T16:46:37.415Z,35.99
2018-06-24T16:49:08.973Z,34.59
2018-06-24T16:51:37.526Z,35.17
2018-06-24T16:54:06.940Z,36.86
2018-06-24T16:56:35.923Z,36.54
2018-06-24T16:59:11.190Z,35.75
2018-06-24T17:01:39.742Z,35.72
2018-06-24T17:04:08.385Z,37.46
2018-06-24T17:06:36.991Z,36.97
2018-06-24T17:09:08.398Z,36.61
2018-06-24T17:11:40.418Z,36.83
2018-06-24T17:14:09.191Z,37.53
2018-06-24T17:16:38.682Z,37.47
2018-06-24T17:19:18.587Z,38.28
2018-06-24T17:21:47.517Z,37.88
2018-06-24T17:24:16.119Z,37.49
2018-06-24T17:26:47.571Z,38.73
2018-06-24T17:29:16.497Z,37.89
2018-06-24T17:31:44.991Z,38.53
2018-06-24T17:36:53.131Z,38.03
2018-06-24T17:39:21.662Z,38.37
2018-06-24T17:41:50.172Z,39.79
2018-06-24T17:44:19.114Z,39.13
2018-06-24T17:46:48.486Z,38.74
2018-06-24T17:49:17.030Z,39.87
2018-06-24T17:51:45.813Z,39.73
2018-06-24T17:54:14.378Z,40.45
2018-06-24T17:56:43.386Z,40.11
2018-06-24T17:59:12.850Z,40.74
2018-06-24T18:01:41.590Z,39.62
2018-06-24T18:04:16.590Z,39.94
2018-06-24T18:06:45.108Z,40.00
2018-06-24T18:09:13.600Z,39.87
2018-06-24T18:11:42.534Z,40.58
2018-06-24T18:14:11.408Z,42.09
2018-06-24T18:16:39.877Z,41.21
2018-06-24T18:19:13.695Z,41.83
2018-06-24T18:21:42.217Z,41.92
2018-06-24T18:24:10.702Z,41.50
2018-06-24T18:26:39.692Z,41.58
2018-06-24T18:29:08.158Z,41.84
2018-06-24T18:31:36.724Z,42.31
2018-06-24T18:34:06.916Z,41.91
2018-06-24T18:36:35.442Z,41.75
2018-06-24T18:39:07.018Z,42.18
2018-06-24T18:44:11.786Z,42.27
2018-06-24T18:46:41.540Z,42.07
2018-06-24T18:49:10.054Z,42.65
2018-06-24T18:51:38.681Z,43.59
2018-06-24T18:54:07.632Z,42.89
2018-06-24T18:56:36.414Z,43.75
2018-06-24T18:59:05.092Z,43.08
2018-06-24T19:01:34.192Z,43.90
2018-06-24T19:04:03.772Z,44.04
2018-06-24T19:06:47.714Z,44.07
2018-06-24T19:09:18.859Z,43.50
2018-06-24T19:11:47.961Z,43.55
2018-06-24T19:14:17.670Z,44.75
2018-06-24T19:16:46.591Z,44.62
2018-06-24T19:19:20.755Z,44.22
2018-06-24T19:21:49.668Z,44.78
2018-06-24T19:24:18.334Z,44.37
2018-06-24T19:26:46.918Z,45.03
2018-06-24T19:29:16.898Z,44.85
2018-06-24T19:31:45.379Z,44.48
2018-06-24T19:34:13.889Z,45.56
2018-06-24T19:36:43.807Z,45.27
2018-06-24T19:39:12.670Z,45.02
2018-06-24T19:41:41.815Z,45.34
2018-06-24T19:44:10.879Z,45.97
2018-06-24T19:46:39.475Z,45.51
2018-06-24T19:49:08.389Z,45.42
2018-06-24T19:51:37.460Z,45.84
2018-06-24T19:54:06.139Z,45.52
2018-06-24T19:56:34.830Z,45.94
2018-06-24T19:59:05.037Z,45.32
2018-06-24T20:01:33.857Z,45.75
2018-06-24T20:04:03.990Z,45.96
2018-06-24T20:06:33.915Z,45.45
2018-06-24T20:09:02.966Z,45.99
2018-06-24T20:11:31.458Z,45.86
2018-06-24T20:14:00.012Z,45.74
2018-06-24T20:16:31.727Z,46.08
2018-06-24T20:19:00.397Z,45.68
2018-06-24T20:21:28.970Z,46.59
2018-06-24T20:23:57.753Z,46.33
2018-06-24T20:26:36.503Z,45.81
2018-06-24T20:29:06.255Z,46.08
2018-06-24T20:31:34.942Z,46.37
2018-06-24T20:34:04.948Z,45.90
2018-06-24T20:36:33.500Z,46.15
2018-06-24T20:39:02.113Z,46.99
2018-06-24T20:41:31.095Z,46.01
2018-06-24T20:43:59.601Z,46.07
2018-06-24T20:46:28.155Z,47.39
2018-06-24T20:49:02.065Z,46.67
2018-06-24T20:51:30.667Z,45.97
2018-06-24T20:53:59.480Z,46.94
2018-06-24T20:56:28.572Z,46.18
2018-06-24T20:59:00.008Z,46.65
2018-06-24T21:01:40.069Z,46.13
2018-06-24T21:04:14.718Z,46.64
2018-06-24T21:06:45.217Z,47.25
2018-06-24T21:09:14.703Z,47.32
2018-06-24T21:11:43.236Z,46.93
2018-06-24T21:14:12.087Z,47.60
2018-06-24T21:16:40.655Z,47.64
2018-06-24T21:19:10.745Z,47.42
2018-06-24T21:21:39.666Z,47.57
2018-06-24T21:24:12.085Z,48.18
2018-06-24T21:26:40.635Z,47.91
2018-06-24T21:29:09.146Z,48.73
2018-06-24T21:31:38.030Z,48.54
2018-06-24T21:34:07.082Z,48.06
2018-06-24T21:36:35.582Z,48.85
2018-06-24T21:39:04.960Z,48.66
2018-06-24T21:41:35.681Z,48.37
2018-06-24T21:44:06.310Z,49.26
2018-06-24T21:46:35.144Z,48.82
2018-06-24T21:49:04.644Z,48.89
2018-06-24T21:51:33.218Z,49.50
2018-06-24T21:54:08.173Z,49.67
2018-06-24T21:56:36.694Z,49.66
2018-06-24T21:59:06.279Z,49.34
2018-06-24T22:01:35.295Z,49.93
2018-06-24T22:04:04.534Z,49.80
2018-06-24T22:06:33.131Z,50.01
2018-06-24T22:09:02.808Z,49.50
2018-06-24T22:11:31.335Z,50.47
2018-06-24T22:13:59.855Z,50.05
2018-06-24T22:16:28.870Z,50.56
2018-06-24T22:19:03.907Z,50.02
2018-06-24T22:21:32.388Z,50.88
2018-06-24T22:24:00.899Z,50.84
2018-06-24T22:26:29.772Z,50.57
2018-06-24T22:28:58.790Z,50.98
2018-06-24T22:31:27.317Z,51.54
2018-06-24T22:33:55.911Z,51.23
2018-06-24T22:36:26.318Z,51.87
2018-06-24T22:38:54.959Z,51.47
2018-06-24T22:41:23.506Z,51.94
2018-06-24T22:44:04.185Z,51.92
2018-06-24T22:46:32.666Z,51.83
2018-06-24T22:49:01.621Z,52.08
2018-06-24T22:51:30.305Z,51.92
2018-06-24T22:53:58.821Z,51.78
2018-06-24T22:56:27.753Z,51.97
2018-06-24T22:59:09.084Z,51.97
2018-06-24T23:01:37.837Z,51.58
2018-06-24T23:04:07.695Z,52.55
2018-06-24T23:06:36.181Z,51.82
2018-06-24T23:09:17.972Z,52.75
2018-06-24T23:11:46.479Z,52.20
2018-06-24T23:14:15.496Z,52.67
2018-06-24T23:16:44.503Z,52.75
2018-06-24T23:19:13.043Z,52.31
2018-06-24T23:21:41.975Z,52.69
2018-06-24T23:24:10.462Z,52.87
2018-06-24T23:26:39.009Z,52.87
2018-06-24T23:29:07.917Z,52.04
2018-06-24T23:31:43.090Z,52.66
2018-06-24T23:34:11.751Z,52.24
2018-06-24T23:36:40.247Z,53.01
2018-06-24T23:39:09.841Z,52.47
2018-06-24T23:41:40.102Z,52.76
2018-06-24T23:44:08.346Z,53.02
2018-06-24T23:46:37.613Z,53.03
2018-06-24T23:49:06.495Z,52.38
2018-06-24T23:51:35.992Z,52.84
2018-06-24T23:54:06.626Z,53.31
2018-06-24T23:56:35.737Z,52.93
2018-06-24T23:59:06.182Z,53.19
